Terminal Aerodrome Forecast
Issued by NWS

Home | Current Version | Previous Version | Text Only | Print | Product List | Glossary On
Versions: 1 2 3 4 5 6 7 8 9 10 11 12 13 14 15 16
000
FTAK31 PAJN 221700
TAFASI
TAF
PASI 221722Z 2218/2318 VRB03KT P6SM OVC090
     FM222000 28006KT P6SM SCT050 BKN090
     FM230000 31010KT P6SM VCSH SCT050 BKN070 OVC100
     FM231000 00000KT P6SM BKN050 OVC080
     FM231500 22006KT P6SM BKN040 OVC070=

USA.gov is the U.S. government's official web portal to all federal, state and local government web resources and services.